»·PEaware :: COA386 MMOX-KIAH

COA386 :: MMOX-KIAH

FLIGHT INFORMATION

Flight Status: Arrived
Operator:
Continental Air Lines
More flights by this operator :: More flights under this callsign
Pilot: Robby H. (353)
Aircraft: BOEING 767-200
(B762)
More flights by this aircraft type
Origin: MMOX Xoxocotlan Intl
Mexico
Destination: KIAH G Bush Intercontinental/Houst
United States
More flights between these airports :: More routes between these airports
Route: OAX LEXUR VER MAM BRO CRP HAMMU1
File this flight plan on PilotEdge
Remarks: / V /
Altitude:
(Current/Filed)
31,000ft
Speed:
(Current/Filed)
532kts
Departed: 25-Dec-11 03:55 PM
Arrived: 25-Dec-11 05:42 PM
Distance/Time
Traveled:
783nm/1:46
Distance/Time
To Go:
Arrived

Flight Plot

Page will automatically refresh every two minutes.


Map Options




Map Legend


Flown Route
Filed Route
Departure Airport
Arrival Airport
Navaid (VOR, NDB)
Fix

Horizontal Profiles

Position Reports

Time Latitude Longitude Heading Altitude Ground
Speed
25-Dec-11 15:46 16.988381 -96.729016 15 5001ft 0kts
25-Dec-11 15:47 16.988381 -96.729016 15 5001ft 0kts
25-Dec-11 15:49 16.988381 -96.729016 15 5001ft 0kts
25-Dec-11 15:50 16.988381 -96.729016 15 5001ft 0kts
25-Dec-11 15:51 16.988381 -96.729016 15 5001ft 0kts
25-Dec-11 15:52 16.988381 -96.729016 15 5001ft 0kts
25-Dec-11 15:53 16.988382 -96.729015 15 5001ft 0kts
25-Dec-11 15:54 17.016573 -96.720767 15 5294ft 169kts
25-Dec-11 15:55 17.041129 -96.678877 124 7053ft 251kts
25-Dec-11 15:56 16.980364 -96.689213 247 8845ft 293kts
25-Dec-11 15:57 16.991556 -96.768462 329 10462ft 312kts
25-Dec-11 15:58 17.079841 -96.747427 30 11609ft 380kts
25-Dec-11 15:59 17.180856 -96.695597 23 12635ft 414kts
25-Dec-11 16:00 17.289825 -96.655899 17 13625ft 425kts
25-Dec-11 16:01 17.406007 -96.624161 14 14633ft 434kts
25-Dec-11 16:02 17.525909 -96.594237 14 15646ft 443kts
25-Dec-11 16:03 17.641917 -96.565451 13 16672ft 433kts
25-Dec-11 16:04 17.761017 -96.535831 13 17747ft 439kts
25-Dec-11 16:05 17.881852 -96.505761 13 18789ft 446kts
25-Dec-11 16:06 17.992549 -96.478139 13 19692ft 467kts
25-Dec-11 16:07 18.117718 -96.446933 13 20672ft 478kts
25-Dec-11 16:08 18.247909 -96.414384 13 21675ft 484kts
25-Dec-11 16:09 18.379618 -96.381433 13 22671ft 491kts
25-Dec-11 16:10 18.513828 -96.347760 13 23674ft 498kts
25-Dec-11 16:11 18.649038 -96.313832 13 24673ft 505kts
25-Dec-11 16:12 18.788158 -96.278914 13 25684ft 511kts
25-Dec-11 16:13 18.926625 -96.243984 13 26678ft 515kts
25-Dec-11 16:14 19.065993 -96.208919 7 27673ft 516kts
25-Dec-11 16:15 19.209685 -96.206787 354 28674ft 513kts
25-Dec-11 16:16 19.348136 -96.227884 348 29645ft 509kts
25-Dec-11 16:17 19.489251 -96.255679 348 30647ft 504kts
25-Dec-11 16:18 19.625904 -96.282224 348 31024ft 510kts
25-Dec-11 16:19 19.767675 -96.309628 348 31029ft 511kts
25-Dec-11 16:20 19.907181 -96.336631 348 31051ft 510kts
25-Dec-11 16:21 20.047557 -96.363992 348 31048ft 510kts
25-Dec-11 16:22 20.186838 -96.391060 348 31060ft 510kts
25-Dec-11 16:23 20.325800 -96.418179 348 31071ft 510kts
25-Dec-11 16:24 20.465467 -96.445457 348 31084ft 509kts
25-Dec-11 16:25 20.605788 -96.472957 348 31087ft 509kts
25-Dec-11 16:26 20.744587 -96.500142 348 31083ft 509kts
25-Dec-11 16:27 20.882807 -96.527309 347 31087ft 509kts
25-Dec-11 16:28 21.023707 -96.555053 347 31093ft 509kts
25-Dec-11 16:29 21.164655 -96.582811 347 31101ft 509kts
25-Dec-11 16:31 21.421009 -96.633575 347 31098ft 509kts
25-Dec-11 16:32 21.559242 -96.660952 347 31096ft 509kts
25-Dec-11 16:33 21.699277 -96.688726 347 31097ft 509kts
25-Dec-11 16:34 21.839383 -96.716653 347 31107ft 509kts
25-Dec-11 16:35 21.975821 -96.743820 347 31111ft 509kts
25-Dec-11 16:36 22.114496 -96.771562 346 31115ft 509kts
25-Dec-11 16:37 22.254482 -96.799619 346 31116ft 509kts
25-Dec-11 16:38 22.395163 -96.827803 346 31126ft 510kts
25-Dec-11 16:39 22.533234 -96.855552 344 31163ft 513kts
25-Dec-11 16:40 22.675739 -96.884345 344 31169ft 515kts
25-Dec-11 16:41 22.817594 -96.912971 344 31170ft 515kts
25-Dec-11 16:42 22.957465 -96.941222 343 31172ft 515kts
25-Dec-11 16:43 23.099624 -96.970116 343 31175ft 515kts
25-Dec-11 16:44 23.239961 -96.998635 343 31177ft 515kts
25-Dec-11 16:45 23.381159 -97.027313 343 31179ft 515kts
25-Dec-11 16:46 23.522334 -97.056174 343 31178ft 515kts
25-Dec-11 16:47 23.664422 -97.085195 343 31180ft 515kts
25-Dec-11 16:48 23.805760 -97.114180 343 31179ft 515kts
25-Dec-11 16:49 23.946145 -97.143067 343 31180ft 516kts
25-Dec-11 16:50 24.087932 -97.172233 343 31180ft 516kts
25-Dec-11 16:51 24.230048 -97.201518 343 31180ft 516kts
25-Dec-11 16:52 24.372061 -97.230949 343 31180ft 517kts
25-Dec-11 16:53 24.513385 -97.260192 343 31180ft 519kts
25-Dec-11 16:54 24.654337 -97.289455 343 31180ft 520kts
25-Dec-11 16:55 24.797277 -97.319299 343 31180ft 520kts
25-Dec-11 16:56 24.940634 -97.349177 343 31180ft 520kts
25-Dec-11 16:57 25.083316 -97.379015 343 31180ft 520kts
25-Dec-11 16:58 25.225995 -97.409008 343 31179ft 520kts
25-Dec-11 16:59 25.368450 -97.438950 343 31174ft 520kts
25-Dec-11 17:01 25.651950 -97.498760 343 31399ft 519kts
25-Dec-11 17:02 25.794847 -97.482030 22 31425ft 541kts
25-Dec-11 17:03 25.920370 -97.404970 13 31409ft 547kts
25-Dec-11 17:04 26.069740 -97.380814 355 31391ft 534kts
25-Dec-11 17:05 26.217590 -97.384568 351 31393ft 528kts
25-Dec-11 17:06 26.363878 -97.390603 352 31397ft 528kts
25-Dec-11 17:07 26.510644 -97.395697 352 31398ft 528kts
25-Dec-11 17:08 26.658999 -97.400791 352 31398ft 528kts
25-Dec-11 17:09 26.803897 -97.405923 352 31395ft 529kts
25-Dec-11 17:10 26.954481 -97.411212 351 31390ft 532kts
25-Dec-11 17:11 27.102580 -97.416407 351 31392ft 534kts
25-Dec-11 17:12 27.250991 -97.425268 347 31389ft 531kts
25-Dec-11 17:13 27.397829 -97.442739 346 31394ft 529kts
25-Dec-11 17:14 27.524474 -97.458333 346 30590ft 531kts
25-Dec-11 17:15 27.673404 -97.462404 9 28903ft 547kts
25-Dec-11 17:16 27.813901 -97.383175 24 27498ft 571kts
25-Dec-11 17:17 27.933430 -97.318830 18 26250ft 560kts
25-Dec-11 17:18 28.099362 -97.249326 15 24515ft 543kts
25-Dec-11 17:19 28.241209 -97.190792 15 23006ft 531kts
25-Dec-11 17:20 28.378612 -97.133255 15 21495ft 520kts
25-Dec-11 17:21 28.491616 -97.085797 15 20224ft 511kts
25-Dec-11 17:22 28.621894 -97.031038 15 18758ft 501kts
25-Dec-11 17:23 28.752823 -96.975847 15 17236ft 490kts
25-Dec-11 17:24 28.878996 -96.922570 15 15731ft 481kts
25-Dec-11 17:25 28.997492 -96.872312 15 14308ft 471kts
25-Dec-11 17:26 29.120968 -96.818459 20 12729ft 463kts
25-Dec-11 17:27 29.225361 -96.733986 42 11997ft 467kts
25-Dec-11 17:28 29.309175 -96.620481 53 11983ft 470kts
25-Dec-11 17:29 29.380107 -96.493713 59 11422ft 468kts
25-Dec-11 17:30 29.440404 -96.375249 60 10037ft 459kts
25-Dec-11 17:31 29.504052 -96.249779 61 8726ft 442kts
25-Dec-11 17:32 29.561799 -96.135654 61 7163ft 390kts
25-Dec-11 17:33 29.615125 -96.029958 61 5662ft 375kts
25-Dec-11 17:34 29.666885 -95.927084 61 4154ft 365kts
25-Dec-11 17:35 29.720176 -95.820743 60 3944ft 415kts
25-Dec-11 17:36 29.779146 -95.703026 61 2961ft 412kts
25-Dec-11 17:37 29.836256 -95.588665 61 2951ft 412kts
25-Dec-11 17:38 29.892991 -95.474752 61 2979ft 390kts
25-Dec-11 17:39 29.957231 -95.408866 9 1560ft 281kts
25-Dec-11 17:40 29.993730 -95.349995 97 258ft 223kts
25-Dec-11 17:41 29.991377 -95.311480 146 109ft 14kts
25-Dec-11 17:42 29.990824 -95.314627 267 109ft 9kts
25-Dec-11 17:43 29.990756 -95.322570 269 109ft 27kts
25-Dec-11 17:44 29.990248 -95.330612 240 109ft 25kts
25-Dec-11 17:45 29.988597 -95.336385 232 109ft 21kts

Navigation Log

Ident Type
Flight plan parsing failed, navigation log unavailable